Estación de Sagrada Familia

Ultimos registro cada 15 minutos 82
Estación Fecha / Hora Temperatura Humedad Lluvia Velocidad Dirección Radiación Presion
82 Sagrada Familia 06-05-2026 20:30 13,3 88 0 0 306 0 1021,6
81 Sagrada Familia 06-05-2026 20:15 13,5 87 0 0 264 0 1021,3
80 Sagrada Familia 06-05-2026 20:00 13,6 87 0 0 258 0 1021,2
79 Sagrada Familia 06-05-2026 19:45 13,6 86 0 0 271 0 1021,1
78 Sagrada Familia 06-05-2026 19:30 13,5 87 0 0 333 0 1020,8
77 Sagrada Familia 06-05-2026 19:15 13,4 88 0 0 122 0 1020,6
76 Sagrada Familia 06-05-2026 19:00 13,4 89 0 0 122 0 1020,5
75 Sagrada Familia 06-05-2026 18:45 13,4 88 0 0 123 0 1020,6
74 Sagrada Familia 06-05-2026 18:30 13,4 88 0 0 123 0 1020,2
73 Sagrada Familia 06-05-2026 18:15 13,4 89 0 0 358 0 1020
72 Sagrada Familia 06-05-2026 18:00 13,6 88 0 0 297 0 1020
71 Sagrada Familia 06-05-2026 17:45 13,9 87 0 0 207 7 1019,6
70 Sagrada Familia 06-05-2026 17:30 14,1 87 0 0 296 16 1019,3
69 Sagrada Familia 06-05-2026 17:15 14,2 87 0 0 291 30 1019,2
68 Sagrada Familia 06-05-2026 17:00 14,6 87 0 0 273 46 1018,7
67 Sagrada Familia 06-05-2026 16:45 15,1 84 0 0,4 256 49 1019,1
66 Sagrada Familia 06-05-2026 16:30 15,4 85 0 0 202 51 1018,9
65 Sagrada Familia 06-05-2026 16:15 15,4 85 0 0 238 67 1018,8
64 Sagrada Familia 06-05-2026 16:00 15,5 84 0 0,4 312 63 1018,7
63 Sagrada Familia 06-05-2026 15:45 15,7 84 0 0,4 308 49 1018,7
62 Sagrada Familia 06-05-2026 15:30 16,2 84 0 0,4 322 49 1018,4
61 Sagrada Familia 06-05-2026 15:15 15,9 86 0 0,4 296 197 1018,1
60 Sagrada Familia 06-05-2026 15:00 15,8 87 0 0,4 292 141 1018,1
59 Sagrada Familia 06-05-2026 14:45 15,7 88 0 0 307 111 1017,7
58 Sagrada Familia 06-05-2026 14:30 15,7 88 0 0,4 302 93 1017,3
57 Sagrada Familia 06-05-2026 14:15 15,6 89 0 0 300 105 1017,2
56 Sagrada Familia 06-05-2026 14:00 15,6 91 0 0,4 302 165 1017,1
55 Sagrada Familia 06-05-2026 13:45 15,3 92 0 0,4 301 520 1016,9
54 Sagrada Familia 06-05-2026 13:30 15,4 89 0 0,4 268 63 1016,7
53 Sagrada Familia 06-05-2026 13:15 15,7 89 0 0,9 300 111 1016,6
52 Sagrada Familia 06-05-2026 13:00 15,8 92 0 0 292 253 1016,1
51 Sagrada Familia 06-05-2026 12:45 15,5 93 0 0,4 339 114 1016
50 Sagrada Familia 06-05-2026 12:30 15,4 93 0 0 308 105 1015,7
49 Sagrada Familia 06-05-2026 12:15 15,2 92 0 1,8 336 118 1015,5
48 Sagrada Familia 06-05-2026 12:00 15,4 90 0 3,1 13 28 1015,2
47 Sagrada Familia 06-05-2026 11:45 15,3 90 0 0,9 324 35 1014,8
46 Sagrada Familia 06-05-2026 11:15 15,3 90 0 0,9 324 35 1014,8
45 Sagrada Familia 06-05-2026 11:00 15,4 89 0 0 304 47 1014,9
44 Sagrada Familia 06-05-2026 10:45 15,2 89 0 0,9 310 39 1014,8
43 Sagrada Familia 06-05-2026 10:30 15 90 0 4 13 65 1014,8
42 Sagrada Familia 06-05-2026 10:15 14,9 91 0,2 3,6 335 158 1014,4
41 Sagrada Familia 06-05-2026 10:00 14,6 92 0,2 2,7 332 104 1014,1
40 Sagrada Familia 06-05-2026 09:45 14,2 92 0,5 0 348 88 1014,1
39 Sagrada Familia 06-05-2026 09:30 13,9 92 1,2 2,2 318 23 1014,3
38 Sagrada Familia 06-05-2026 09:15 13,9 92 1 1,3 33 19 1014,2
37 Sagrada Familia 06-05-2026 09:00 13,7 93 1,3 0,9 285 74 1013,9
36 Sagrada Familia 06-05-2026 08:45 13,7 92 1,4 0,9 262 5 1013,8
35 Sagrada Familia 06-05-2026 08:30 13,9 92 1,5 0,9 327 11 1013,8
34 Sagrada Familia 06-05-2026 08:15 13,8 92 1 0,9 21 60 1013,5
33 Sagrada Familia 06-05-2026 08:00 13,6 92 0,5 0,9 336 25 1013,6
32 Sagrada Familia 06-05-2026 07:45 13,5 91 0,4 0 9 5 1013,6
31 Sagrada Familia 06-05-2026 07:30 13,6 90 0,2 0,9 10 0 1013,7
30 Sagrada Familia 06-05-2026 07:15 13,4 89 1,3 1,8 356 0 1013,5
29 Sagrada Familia 06-05-2026 07:00 13,8 86 0,6 0 343 0 1013,6
28 Sagrada Familia 06-05-2026 06:45 14,1 84 0,3 0 21 0 1013,3
27 Sagrada Familia 06-05-2026 06:30 14 84 0 0 68 0 1012,9
26 Sagrada Familia 06-05-2026 06:15 14 83 0,1 0,4 355 0 1013,2
25 Sagrada Familia 06-05-2026 06:00 14 84 0 0,4 168 0 1012,8
24 Sagrada Familia 06-05-2026 05:45 14,1 83 0 0 127 0 1013,1
23 Sagrada Familia 06-05-2026 05:30 12,6 91 0 0,4 92 0 1012,8
22 Sagrada Familia 06-05-2026 05:15 11,9 92 0 0,9 13 0 1012,8
21 Sagrada Familia 06-05-2026 05:00 11,5 93 0 0 69 0 1012,9
20 Sagrada Familia 06-05-2026 04:45 11,4 93 0 0 139 0 1012,9
19 Sagrada Familia 06-05-2026 04:30 11,4 92 0 0 168 0 1013
18 Sagrada Familia 06-05-2026 04:15 11,4 92 0 0 92 0 1013
17 Sagrada Familia 06-05-2026 04:00 11,5 91 0 0 210 0 1013
16 Sagrada Familia 06-05-2026 03:45 11,9 91 0 0 163 0 1013
15 Sagrada Familia 06-05-2026 03:30 12,1 90 0 0 106 0 1013,3
14 Sagrada Familia 06-05-2026 03:15 12 92 0 0 150 0 1013,1
13 Sagrada Familia 06-05-2026 03:00 11,4 92 0 0,9 163 0 1013,2
12 Sagrada Familia 06-05-2026 02:45 11,4 92 0 0,4 139 0 1013,6
11 Sagrada Familia 06-05-2026 02:30 11,1 90 0 0 82 0 1013,4
10 Sagrada Familia 06-05-2026 02:15 11,5 89 0 0 10 0 1013,5
9 Sagrada Familia 06-05-2026 02:00 12,1 89 0 0 10 0 1013,7
8 Sagrada Familia 06-05-2026 01:45 12,3 89 0 0 10 0 1013,7
7 Sagrada Familia 06-05-2026 01:30 12,6 89 0 0 10 0 1013,9
6 Sagrada Familia 06-05-2026 01:15 12,9 89 0 0,4 360 0 1013,8
5 Sagrada Familia 06-05-2026 01:00 12,8 89 0 0 71 0 1013,8
4 Sagrada Familia 06-05-2026 00:45 12,9 87 0 0 181 0 1013,6
3 Sagrada Familia 06-05-2026 00:30 13,3 87 0 0 181 0 1013,7
2 Sagrada Familia 06-05-2026 00:15 13,7 86 0 0 187 0 1013,7
1 Sagrada Familia 06-05-2026 00:00 14,1 85 0 0 141 0 1013,9